This is the latest recevied weather packets stored in our database for station/object W1LH-12. If no packets are shown the sender has not sent any weather packets the latest 10 day(s).
| Time | Temp. | Humidity | Pressure | Rain* | Wind** | Luminosity | Snow |
|---|---|---|---|---|---|---|---|
| 1777784780 | 6.67° C | - | 1011.9 hPa | 0 mm | - | - | - |
| 1777784481 | 6.67° C | - | 1011.9 hPa | 0 mm | - | - | - |
| 1777784180 | 6.67° C | - | 1011.9 hPa | 0 mm | - | - | - |
| 1777643480 | 13.89° C | - | 1006.1 hPa | 0 mm | - | - | - |
| 1777642880 | 13.89° C | - | 1006.1 hPa | 0 mm | - | - | - |
| 1777637179 | 10° C | - | 1005.5 hPa | 0 mm | - | - | - |
| 1777636881 | 9.44° C | - | 1005.5 hPa | 0 mm | - | - | - |
| 1777632380 | 7.78° C | - | 1004.8 hPa | 0 mm | - | - | - |
| 1777631480 | 7.78° C | - | 1004.8 hPa | 0 mm | - | - | - |
| 1777631180 | 7.78° C | - | 1004.4 hPa | 0 mm | - | - | - |
| 1777630880 | 7.22° C | - | 1004.8 hPa | 0 mm | - | - | - |
| 1777630580 | 7.22° C | - | 1004.8 hPa | 0 mm | - | - | - |
| 1777629980 | 7.22° C | - | 1004.8 hPa | 0 mm | - | - | - |
| 1777620081 | 7.22° C | - | 1004.1 hPa | 0 mm | - | - | - |
| 1777619815 | 7.22° C | - | 1004.4 hPa | 0 mm | - | - | - |
| 1777619779 | 7.22° C | - | 1004.4 hPa | 0 mm | - | - | - |
| 1777617080 | 7.22° C | - | 1004.4 hPa | 0 mm | - | - | - |
| 1777616779 | 7.22° C | - | 1004.4 hPa | 0 mm | - | - | - |
| 1777616481 | 7.22° C | - | 1004.4 hPa | 0 mm | - | - | - |
| 1777615279 | 7.22° C | - | 1004.8 hPa | 0 mm | - | - | - |
| 1777614981 | 7.22° C | - | 1004.8 hPa | 0 mm | - | - | - |
| 1777614682 | 7.22° C | - | 1004.8 hPa | 0 mm | - | - | - |
| 1777614380 | 7.22° C | - | 1005.1 hPa | 0 mm | - | - | - |
| 1777613181 | 7.78° C | - | 1004.8 hPa | 0 mm | - | - | - |
| 1777612580 | 7.78° C | - | 1005.1 hPa | 0 mm | - | - | - |
* Rain latest hour (hover to see other rain measurements)
** Current wind speed in m/s (hover to see current wind gust speed)